createdAt,value
2022-10-22T00:00:18.680Z,9.02
2022-10-22T00:00:50.592Z,9.43
2022-10-22T00:01:22.967Z,9.05
2022-10-22T00:01:54.553Z,8.70
2022-10-22T00:02:27.841Z,9.70
2022-10-22T00:02:59.493Z,9.65
2022-10-22T00:03:31.071Z,9.80
2022-10-22T00:04:02.708Z,9.38
2022-10-22T00:04:35.635Z,9.98
2022-10-22T00:05:07.948Z,10.98
2022-10-22T00:05:39.567Z,12.07
2022-10-22T00:06:11.247Z,12.45
2022-10-22T00:06:44.983Z,11.55
2022-10-22T00:07:19.826Z,11.60
2022-10-22T00:07:51.407Z,10.20
2022-10-22T00:08:22.935Z,10.68
2022-10-22T00:08:54.508Z,11.10
2022-10-22T00:09:26.344Z,9.75
2022-10-22T00:09:57.937Z,10.10
2022-10-22T00:10:29.586Z,9.82
2022-10-22T00:11:08.611Z,10.48
2022-10-22T00:11:41.834Z,9.82
2022-10-22T00:12:15.161Z,9.98
2022-10-22T00:12:46.676Z,9.38
2022-10-22T00:13:19.091Z,9.60
2022-10-22T00:13:51.269Z,8.93
2022-10-22T00:14:22.859Z,9.77
2022-10-22T00:14:54.542Z,8.95
2022-10-22T00:15:26.256Z,9.38
2022-10-22T00:15:57.835Z,9.73
2022-10-22T00:16:29.406Z,9.32
2022-10-22T00:17:01.080Z,9.05
2022-10-22T00:17:32.598Z,9.10
2022-10-22T00:18:04.263Z,8.88
2022-10-22T00:18:36.568Z,9.83
2022-10-22T00:19:09.265Z,8.88
2022-10-22T00:19:41.132Z,9.20
2022-10-22T00:20:12.880Z,9.98
2022-10-22T00:20:44.454Z,9.82
2022-10-22T00:21:16.035Z,9.20
2022-10-22T00:21:47.594Z,9.60
2022-10-22T00:22:19.118Z,9.68
2022-10-22T00:23:27.085Z,9.82
2022-10-22T00:23:58.594Z,9.47
2022-10-22T00:24:30.107Z,9.27
2022-10-22T00:25:01.617Z,9.93
2022-10-22T00:25:35.816Z,8.90
2022-10-22T00:26:07.334Z,10.30
2022-10-22T00:26:40.371Z,10.40
2022-10-22T00:27:12.754Z,10.70
2022-10-22T00:27:44.266Z,11.43
2022-10-22T00:28:15.792Z,11.63
2022-10-22T00:28:47.302Z,11.52
2022-10-22T00:29:20.062Z,12.75
2022-10-22T00:29:51.565Z,12.13
2022-10-22T00:30:23.100Z,12.60
2022-10-22T00:30:59.058Z,13.88
2022-10-22T00:31:30.674Z,13.73
2022-10-22T00:32:02.602Z,13.32
2022-10-22T00:32:34.335Z,13.57
2022-10-22T00:33:05.946Z,13.35
2022-10-22T00:33:37.476Z,13.25
2022-10-22T00:34:09.021Z,12.25
2022-10-22T00:34:40.710Z,13.07
2022-10-22T00:35:12.250Z,12.95
2022-10-22T00:35:44.110Z,12.57
2022-10-22T00:36:16.822Z,12.00
2022-10-22T00:36:49.839Z,13.95
2022-10-22T00:37:21.485Z,14.85
2022-10-22T00:37:53.072Z,14.07
2022-10-22T00:38:24.970Z,13.80
2022-10-22T00:38:56.486Z,14.52
2022-10-22T00:39:28.746Z,14.43
2022-10-22T00:40:00.310Z,15.37
2022-10-22T00:40:31.875Z,13.35
2022-10-22T00:41:03.416Z,13.93
2022-10-22T00:41:34.948Z,14.23
2022-10-22T00:42:06.551Z,13.85
2022-10-22T00:42:38.424Z,13.93
2022-10-22T00:43:15.954Z,12.85
2022-10-22T00:43:58.288Z,12.98
2022-10-22T00:45:00.322Z,12.73
2022-10-22T00:45:31.937Z,11.07
2022-10-22T00:46:03.466Z,10.77
2022-10-22T00:46:34.986Z,11.25
2022-10-22T00:47:06.614Z,11.93
2022-10-22T00:48:01.412Z,11.82
2022-10-22T00:48:33.666Z,10.38
2022-10-22T00:49:05.211Z,11.68
2022-10-22T00:49:36.795Z,11.88
2022-10-22T00:50:13.858Z,11.73
2022-10-22T00:50:56.404Z,12.82
2022-10-22T00:51:33.627Z,11.80
2022-10-22T00:52:05.874Z,11.10
2022-10-22T00:52:37.841Z,11.60
2022-10-22T00:53:19.483Z,11.30
2022-10-22T00:53:55.972Z,11.07
2022-10-22T00:54:27.598Z,10.70
2022-10-22T00:55:00.780Z,10.35
2022-10-22T00:55:33.355Z,10.63
2022-10-22T00:56:06.134Z,12.43
2022-10-22T00:56:38.150Z,11.52
2022-10-22T00:57:09.951Z,12.40
2022-10-22T00:57:42.132Z,12.90
2022-10-22T00:58:14.104Z,12.00
2022-10-22T00:58:49.356Z,12.13
2022-10-22T00:59:20.939Z,11.80
2022-10-22T00:59:52.626Z,11.80
2022-10-22T01:00:24.896Z,12.05
2022-10-22T01:00:57.521Z,10.65
2022-10-22T01:01:31.922Z,11.05
2022-10-22T01:02:04.144Z,12.30
2022-10-22T01:02:35.826Z,12.15
2022-10-22T01:03:07.601Z,12.43
2022-10-22T01:03:39.139Z,11.45
2022-10-22T01:04:10.743Z,11.35
2022-10-22T01:04:42.728Z,11.75
2022-10-22T01:05:14.334Z,11.68
2022-10-22T01:06:00.638Z,11.98
2022-10-22T01:06:34.244Z,12.07
2022-10-22T01:07:06.074Z,12.00
2022-10-22T01:07:48.110Z,11.95
2022-10-22T01:08:39.654Z,11.25
2022-10-22T01:09:26.581Z,11.53
2022-10-22T01:10:26.062Z,11.70
2022-10-22T01:11:06.651Z,11.55
2022-10-22T01:11:51.710Z,12.30
2022-10-22T01:12:44.807Z,12.35
2022-10-22T01:13:33.146Z,12.38
2022-10-22T01:14:16.510Z,12.73
2022-10-22T01:15:12.955Z,12.48
2022-10-22T01:16:08.962Z,11.80
2022-10-22T01:17:30.951Z,11.52
2022-10-22T01:18:17.885Z,12.55
2022-10-22T01:19:03.066Z,11.80
2022-10-22T01:19:57.906Z,11.38
2022-10-22T01:20:46.111Z,11.73
2022-10-22T01:21:26.680Z,12.25
2022-10-22T01:22:14.169Z,10.80
2022-10-22T01:23:08.513Z,12.23
2022-10-22T01:24:09.326Z,11.93
2022-10-22T01:24:47.893Z,11.38
2022-10-22T01:25:35.071Z,12.02
2022-10-22T01:27:09.975Z,11.43
2022-10-22T01:28:10.699Z,11.50
2022-10-22T01:28:48.086Z,11.73
2022-10-22T01:29:45.007Z,11.85
2022-10-22T01:30:17.824Z,11.55
2022-10-22T01:30:53.778Z,12.50
2022-10-22T01:31:30.880Z,13.10
2022-10-22T01:32:10.354Z,12.40
2022-10-22T01:33:05.438Z,11.85
2022-10-22T01:33:38.672Z,11.87
2022-10-22T01:34:13.343Z,12.23
2022-10-22T01:34:52.167Z,13.27
2022-10-22T01:36:04.719Z,13.00
2022-10-22T01:36:37.783Z,12.00
2022-10-22T01:37:12.890Z,12.73
2022-10-22T01:37:54.123Z,12.23
2022-10-22T01:38:26.463Z,13.10
2022-10-22T01:39:00.672Z,12.52
2022-10-22T01:39:34.745Z,12.18
2022-10-22T01:40:08.908Z,12.82
2022-10-22T01:40:41.913Z,13.30
2022-10-22T01:41:13.950Z,12.85
2022-10-22T01:41:45.828Z,12.50
2022-10-22T01:42:17.874Z,12.68
2022-10-22T01:43:04.130Z,12.75
2022-10-22T01:43:35.638Z,13.05
2022-10-22T01:44:07.140Z,12.68
2022-10-22T01:44:39.052Z,12.65
2022-10-22T01:45:14.612Z,12.07
2022-10-22T01:45:56.500Z,12.68
2022-10-22T01:46:28.713Z,11.48
2022-10-22T01:47:36.587Z,13.23
2022-10-22T01:48:50.858Z,12.32
2022-10-22T01:49:52.117Z,11.75
2022-10-22T01:50:26.467Z,11.93
2022-10-22T01:51:25.493Z,11.75
2022-10-22T01:52:06.727Z,12.55
2022-10-22T01:53:24.684Z,12.13
2022-10-22T01:54:29.893Z,11.82
2022-10-22T01:55:21.178Z,11.63
2022-10-22T01:56:24.005Z,12.55
2022-10-22T01:57:22.295Z,12.13
2022-10-22T01:58:15.738Z,13.00
2022-10-22T01:59:05.487Z,12.68
2022-10-22T01:59:49.255Z,12.60
2022-10-22T02:01:33.582Z,12.88
2022-10-22T02:02:09.283Z,12.23
2022-10-22T02:02:40.789Z,13.25
2022-10-22T02:03:23.946Z,12.82
2022-10-22T02:04:06.225Z,12.52
2022-10-22T02:04:37.673Z,12.77
2022-10-22T02:05:15.056Z,11.10
2022-10-22T02:05:51.088Z,10.90
2022-10-22T02:06:25.152Z,11.98
2022-10-22T02:07:01.471Z,11.57
2022-10-22T02:07:39.745Z,11.93
2022-10-22T02:08:21.808Z,12.27
2022-10-22T02:08:54.732Z,10.63
2022-10-22T02:09:28.372Z,10.00
2022-10-22T02:10:01.280Z,10.57
2022-10-22T02:10:33.565Z,11.55
2022-10-22T02:11:06.219Z,10.82
2022-10-22T02:11:38.236Z,10.98
2022-10-22T02:12:11.185Z,10.80
2022-10-22T02:12:44.867Z,9.90
2022-10-22T02:13:23.189Z,10.65
2022-10-22T02:13:58.522Z,10.23
2022-10-22T02:14:31.472Z,10.07
2022-10-22T02:15:04.475Z,10.20
2022-10-22T02:15:38.395Z,9.90
2022-10-22T02:16:14.032Z,10.18
2022-10-22T02:16:47.664Z,9.23
2022-10-22T02:17:21.603Z,9.98
2022-10-22T02:17:56.910Z,10.57
2022-10-22T02:18:31.183Z,10.88
2022-10-22T02:19:10.511Z,10.48
2022-10-22T02:19:47.890Z,9.88
2022-10-22T02:20:31.335Z,10.32
2022-10-22T02:21:03.519Z,9.52
2022-10-22T02:21:35.469Z,10.68
2022-10-22T02:22:07.583Z,11.00
2022-10-22T02:22:40.217Z,11.90
2022-10-22T02:23:12.282Z,11.38
2022-10-22T02:23:44.688Z,11.35
2022-10-22T02:24:17.593Z,11.48
2022-10-22T02:24:49.912Z,11.73
2022-10-22T02:25:27.664Z,12.10
2022-10-22T02:26:06.157Z,11.30
2022-10-22T02:26:59.122Z,10.85
2022-10-22T02:27:36.067Z,10.98
2022-10-22T02:28:24.107Z,11.70
2022-10-22T02:29:14.503Z,11.25
2022-10-22T02:30:02.845Z,10.80
2022-10-22T02:30:38.597Z,11.43
2022-10-22T02:31:15.778Z,10.70
2022-10-22T02:31:50.176Z,11.38
2022-10-22T02:32:26.127Z,10.80
2022-10-22T02:32:57.614Z,11.40
2022-10-22T02:33:34.549Z,10.35
2022-10-22T02:34:11.137Z,10.40
2022-10-22T02:34:42.747Z,10.75
2022-10-22T02:35:19.340Z,11.40
2022-10-22T02:35:52.298Z,10.68
2022-10-22T02:36:24.814Z,11.23
2022-10-22T02:36:57.916Z,10.57
2022-10-22T02:37:29.819Z,11.00
2022-10-22T02:38:01.569Z,11.60
2022-10-22T02:38:34.759Z,11.27
2022-10-22T02:39:07.921Z,11.40
2022-10-22T02:39:40.258Z,12.15
2022-10-22T02:40:12.209Z,11.57
2022-10-22T02:40:43.874Z,11.77
2022-10-22T02:41:17.722Z,11.55
2022-10-22T02:41:49.435Z,11.38
2022-10-22T02:42:20.995Z,12.40
2022-10-22T02:42:53.220Z,11.35
2022-10-22T02:43:25.561Z,11.57
2022-10-22T02:43:57.135Z,11.40
2022-10-22T02:44:28.698Z,10.88
2022-10-22T02:45:00.212Z,11.52
2022-10-22T02:45:32.277Z,11.63
2022-10-22T02:46:03.956Z,12.48
2022-10-22T02:46:35.675Z,11.43
2022-10-22T02:47:07.278Z,12.38
2022-10-22T02:47:38.778Z,11.45
2022-10-22T02:48:10.400Z,12.02
2022-10-22T02:48:41.957Z,10.80
2022-10-22T02:49:13.538Z,11.40
2022-10-22T02:49:45.049Z,11.10
2022-10-22T02:50:17.137Z,11.60
2022-10-22T02:50:48.771Z,11.63
2022-10-22T02:51:20.370Z,12.27
2022-10-22T02:51:51.874Z,10.98
2022-10-22T02:52:23.382Z,11.10
2022-10-22T02:52:54.904Z,10.65
2022-10-22T02:53:26.476Z,11.70
2022-10-22T02:53:58.075Z,11.80
2022-10-22T02:54:29.650Z,11.60
2022-10-22T02:55:01.333Z,11.40
2022-10-22T02:55:32.869Z,11.65
2022-10-22T02:56:05.143Z,13.93
2022-10-22T02:56:36.678Z,11.32
2022-10-22T02:57:08.206Z,11.45
2022-10-22T02:57:40.297Z,11.95
2022-10-22T02:58:13.950Z,11.25
2022-10-22T02:58:45.494Z,11.35
2022-10-22T02:59:17.039Z,11.73
2022-10-22T02:59:48.572Z,11.18
2022-10-22T03:00:20.267Z,10.90
2022-10-22T03:00:52.068Z,11.13
2022-10-22T03:01:23.856Z,11.13
2022-10-22T03:01:55.400Z,11.98
2022-10-22T03:02:26.923Z,11.50
2022-10-22T03:02:58.428Z,11.15
2022-10-22T03:03:29.938Z,10.75
2022-10-22T03:04:01.453Z,11.43
2022-10-22T03:04:33.079Z,11.77
2022-10-22T03:05:05.454Z,11.73
2022-10-22T03:05:36.949Z,11.75
2022-10-22T03:06:08.920Z,12.13
2022-10-22T03:06:43.886Z,12.40
2022-10-22T03:07:15.705Z,11.75
2022-10-22T03:07:47.216Z,10.68
2022-10-22T03:08:18.842Z,12.13
2022-10-22T03:08:50.420Z,11.38
2022-10-22T03:09:24.149Z,11.63
2022-10-22T03:09:56.446Z,10.93
2022-10-22T03:10:27.970Z,11.70
2022-10-22T03:10:59.538Z,11.88
2022-10-22T03:11:31.054Z,11.75
2022-10-22T03:12:02.571Z,11.27
2022-10-22T03:12:34.190Z,10.90
2022-10-22T03:13:05.723Z,11.77
2022-10-22T03:13:37.290Z,10.85
2022-10-22T03:14:08.810Z,11.20
2022-10-22T03:14:40.415Z,11.07
2022-10-22T03:15:11.936Z,10.82
2022-10-22T03:15:43.494Z,10.65
2022-10-22T03:16:15.086Z,10.88
2022-10-22T03:16:46.723Z,11.57
2022-10-22T03:17:18.227Z,11.27
2022-10-22T03:17:49.763Z,11.10
2022-10-22T03:18:21.294Z,11.07
2022-10-22T03:18:52.843Z,10.15
2022-10-22T03:19:24.372Z,11.15
2022-10-22T03:19:55.928Z,10.68
2022-10-22T03:20:27.750Z,11.15
2022-10-22T03:21:20.944Z,11.38
2022-10-22T03:21:58.788Z,9.77
2022-10-22T03:22:32.695Z,11.48
2022-10-22T03:23:04.441Z,11.20
2022-10-22T03:23:37.350Z,10.70
2022-10-22T03:24:15.018Z,11.23
2022-10-22T03:24:50.298Z,10.82
2022-10-22T03:25:25.278Z,10.85
2022-10-22T03:25:56.823Z,12.00
2022-10-22T03:26:28.904Z,11.80
2022-10-22T03:27:00.484Z,10.18
2022-10-22T03:27:32.006Z,10.98
2022-10-22T03:28:06.620Z,10.98
2022-10-22T03:28:39.640Z,10.77
2022-10-22T03:29:12.962Z,11.02
2022-10-22T03:29:44.718Z,11.10
2022-10-22T03:30:16.282Z,10.90
2022-10-22T03:30:47.790Z,11.43
2022-10-22T03:31:19.291Z,11.27
2022-10-22T03:31:50.919Z,11.80
2022-10-22T03:32:22.530Z,11.70
2022-10-22T03:32:54.022Z,12.07
2022-10-22T03:33:25.538Z,11.75
2022-10-22T03:33:57.038Z,10.90
2022-10-22T03:34:28.829Z,11.38
2022-10-22T03:35:42.682Z,11.88
2022-10-22T03:36:14.235Z,11.57
2022-10-22T03:36:46.369Z,11.15
2022-10-22T03:37:18.213Z,11.60
2022-10-22T03:37:50.268Z,11.15
2022-10-22T03:38:21.882Z,11.35
2022-10-22T03:38:53.962Z,11.18
2022-10-22T03:39:27.099Z,11.05
2022-10-22T03:39:58.914Z,10.93
2022-10-22T03:40:30.446Z,10.30
2022-10-22T03:41:02.239Z,10.50
2022-10-22T03:41:34.745Z,10.65
2022-10-22T03:42:07.456Z,10.63
2022-10-22T03:42:40.212Z,10.43
2022-10-22T03:43:12.020Z,10.82
2022-10-22T03:43:45.156Z,10.23
2022-10-22T03:44:17.998Z,10.43
2022-10-22T03:44:49.840Z,10.15
2022-10-22T03:45:21.344Z,10.48
2022-10-22T03:45:52.840Z,10.57
2022-10-22T03:46:24.418Z,9.93
2022-10-22T03:46:58.732Z,9.93
2022-10-22T03:47:33.269Z,10.65
2022-10-22T03:48:05.194Z,9.75
2022-10-22T03:48:36.694Z,9.65
2022-10-22T03:49:08.204Z,10.15
2022-10-22T03:49:39.768Z,9.90
2022-10-22T03:50:11.332Z,10.45
2022-10-22T03:50:42.859Z,10.43
2022-10-22T03:51:14.372Z,9.88
2022-10-22T03:51:45.889Z,10.48
2022-10-22T03:52:18.162Z,10.10
2022-10-22T03:52:49.670Z,11.00
2022-10-22T03:53:21.244Z,9.48
2022-10-22T03:53:52.756Z,9.95
2022-10-22T03:54:24.276Z,9.82
2022-10-22T03:54:55.851Z,10.45
2022-10-22T03:55:27.558Z,10.25
2022-10-22T03:55:59.080Z,11.15
2022-10-22T03:56:31.013Z,15.32
2022-10-22T03:57:03.451Z,19.48
2022-10-22T03:57:35.057Z,17.02
2022-10-22T03:58:06.598Z,15.73
2022-10-22T03:58:40.291Z,15.02
2022-10-22T03:59:13.160Z,13.85
2022-10-22T03:59:46.458Z,14.18
2022-10-22T04:00:18.234Z,15.18
2022-10-22T04:00:49.849Z,16.73
2022-10-22T04:01:21.462Z,14.35
2022-10-22T04:01:53.095Z,16.08
2022-10-22T04:02:24.607Z,17.77
2022-10-22T04:02:56.303Z,16.65
2022-10-22T04:03:27.792Z,15.73
2022-10-22T04:03:59.710Z,14.00
2022-10-22T04:04:31.340Z,11.48
2022-10-22T04:05:02.986Z,10.73
2022-10-22T04:05:34.570Z,10.98
2022-10-22T04:06:12.294Z,10.93
2022-10-22T04:06:43.808Z,11.07
2022-10-22T04:07:15.316Z,10.48
2022-10-22T04:07:46.830Z,10.60
2022-10-22T04:08:18.372Z,10.70
2022-10-22T04:08:49.982Z,10.25
2022-10-22T04:09:21.642Z,10.65
2022-10-22T04:09:53.204Z,11.15
2022-10-22T04:10:24.898Z,10.23
2022-10-22T04:10:56.434Z,9.40
2022-10-22T04:11:28.026Z,10.38
2022-10-22T04:12:00.114Z,10.07
2022-10-22T04:12:31.617Z,9.98
2022-10-22T04:13:03.132Z,10.23
2022-10-22T04:13:34.688Z,9.82
2022-10-22T04:14:06.235Z,10.27
2022-10-22T04:14:37.734Z,9.85
2022-10-22T04:15:09.855Z,11.07
2022-10-22T04:15:41.385Z,10.18
2022-10-22T04:16:15.482Z,9.85
2022-10-22T04:16:46.984Z,9.77
2022-10-22T04:17:18.899Z,10.35
2022-10-22T04:17:50.405Z,9.98
2022-10-22T04:18:23.567Z,10.02
2022-10-22T04:18:55.663Z,10.30
2022-10-22T04:19:27.167Z,10.13
2022-10-22T04:19:58.719Z,10.40
2022-10-22T04:20:30.217Z,9.85
2022-10-22T04:21:01.866Z,10.43
2022-10-22T04:21:34.294Z,10.02
2022-10-22T04:22:05.789Z,10.57
2022-10-22T04:22:37.348Z,9.50
2022-10-22T04:23:08.916Z,10.70
2022-10-22T04:23:48.172Z,11.00
2022-10-22T04:24:19.706Z,11.77
2022-10-22T04:25:27.619Z,17.92
2022-10-22T04:26:00.757Z,20.38
2022-10-22T04:26:32.403Z,12.55
2022-10-22T04:27:04.052Z,14.70
2022-10-22T04:27:35.657Z,20.05
2022-10-22T04:28:08.292Z,26.08
2022-10-22T04:28:39.840Z,27.10
2022-10-22T04:29:13.613Z,25.23
2022-10-22T04:29:47.666Z,23.42
2022-10-22T04:30:19.235Z,21.80
2022-10-22T04:30:50.728Z,19.40
2022-10-22T04:31:24.655Z,19.35
2022-10-22T04:31:56.157Z,17.77
2022-10-22T04:32:28.295Z,16.48
2022-10-22T04:32:59.833Z,15.95
2022-10-22T04:33:31.373Z,14.00
2022-10-22T04:34:02.879Z,12.65
2022-10-22T04:34:34.435Z,13.38
2022-10-22T04:35:06.316Z,13.45
2022-10-22T04:35:39.910Z,13.25
2022-10-22T04:36:17.623Z,13.40
2022-10-22T04:36:49.130Z,13.05
2022-10-22T04:37:21.008Z,12.52
2022-10-22T04:37:52.515Z,12.48
2022-10-22T04:38:24.247Z,12.93
2022-10-22T04:38:58.445Z,13.43
2022-10-22T04:39:30.453Z,12.18
2022-10-22T04:40:02.001Z,13.02
2022-10-22T04:40:33.523Z,12.50
2022-10-22T04:41:12.038Z,13.00
2022-10-22T04:41:43.653Z,13.15
2022-10-22T04:42:15.181Z,12.77
2022-10-22T04:42:46.732Z,12.85
2022-10-22T04:43:18.226Z,13.13
2022-10-22T04:43:50.092Z,12.90
2022-10-22T04:44:21.985Z,12.98
2022-10-22T04:44:53.676Z,13.52
2022-10-22T04:45:25.225Z,13.50
2022-10-22T04:46:00.435Z,13.93
2022-10-22T04:46:34.447Z,13.80
2022-10-22T04:47:06.004Z,14.48
2022-10-22T04:47:37.769Z,14.45
2022-10-22T04:48:09.369Z,16.33
2022-10-22T04:48:42.188Z,16.58
2022-10-22T04:49:13.800Z,15.75
2022-10-22T04:49:45.293Z,17.13
2022-10-22T04:50:16.862Z,16.02
2022-10-22T04:50:48.365Z,16.02
2022-10-22T04:51:22.071Z,17.45
2022-10-22T04:51:53.969Z,17.83
2022-10-22T04:52:25.469Z,17.95
2022-10-22T04:52:56.962Z,17.25
2022-10-22T04:53:28.559Z,17.33
2022-10-22T04:54:00.152Z,18.25
2022-10-22T04:54:33.129Z,17.20
2022-10-22T04:55:05.301Z,16.83
2022-10-22T04:55:36.810Z,16.60
2022-10-22T04:56:09.236Z,17.35
2022-10-22T04:56:40.825Z,17.50
2022-10-22T04:57:12.645Z,16.52
2022-10-22T04:57:44.266Z,16.38
2022-10-22T04:58:15.774Z,16.35
2022-10-22T04:58:54.309Z,15.80
2022-10-22T04:59:25.936Z,14.85
2022-10-22T04:59:57.457Z,15.70
2022-10-22T05:00:28.969Z,14.65
2022-10-22T05:01:00.547Z,14.25
2022-10-22T05:01:41.748Z,15.57
2022-10-22T05:02:14.884Z,16.15
2022-10-22T05:02:50.009Z,16.33
2022-10-22T05:03:21.500Z,16.02
2022-10-22T05:03:54.967Z,16.08
2022-10-22T05:04:26.474Z,16.63
2022-10-22T05:04:58.008Z,16.33
2022-10-22T05:05:29.498Z,16.58
2022-10-22T05:06:01.889Z,17.35
2022-10-22T05:06:35.059Z,16.63
2022-10-22T05:07:06.572Z,16.20
2022-10-22T05:07:38.274Z,16.90
2022-10-22T05:08:10.034Z,16.90
2022-10-22T05:08:43.514Z,16.52
2022-10-22T05:09:18.190Z,17.55
2022-10-22T05:09:50.173Z,17.50
2022-10-22T05:10:21.702Z,18.02
2022-10-22T05:10:53.202Z,17.83
2022-10-22T05:11:34.014Z,17.25
2022-10-22T05:12:06.484Z,16.35
2022-10-22T05:12:38.065Z,17.30
2022-10-22T05:13:09.591Z,17.10
2022-10-22T05:13:41.181Z,16.27
2022-10-22T05:14:13.119Z,15.20
2022-10-22T05:14:44.953Z,16.05
2022-10-22T05:15:16.621Z,15.75
2022-10-22T05:15:48.127Z,15.35
2022-10-22T05:16:19.675Z,15.73
2022-10-22T05:16:52.240Z,16.27
2022-10-22T05:17:23.740Z,15.88
2022-10-22T05:17:55.277Z,15.55
2022-10-22T05:18:26.799Z,15.80
2022-10-22T05:19:00.027Z,14.63
2022-10-22T05:19:31.907Z,14.90
2022-10-22T05:20:05.231Z,17.42
2022-10-22T05:20:40.468Z,16.63
2022-10-22T05:21:15.330Z,15.45
2022-10-22T05:21:47.026Z,16.40
2022-10-22T05:22:18.591Z,17.30
2022-10-22T05:22:50.090Z,17.83
2022-10-22T05:23:21.596Z,17.20
2022-10-22T05:23:55.794Z,16.80
2022-10-22T05:24:28.587Z,17.63
2022-10-22T05:25:00.090Z,17.17
2022-10-22T05:25:31.626Z,17.40
2022-10-22T05:26:08.062Z,17.30
2022-10-22T05:26:39.606Z,16.67
2022-10-22T05:27:11.151Z,16.75
2022-10-22T05:27:42.857Z,16.83
2022-10-22T05:28:14.622Z,16.77
2022-10-22T05:28:47.609Z,15.82
2022-10-22T05:29:19.972Z,14.90
2022-10-22T05:29:51.729Z,13.23
2022-10-22T05:30:23.257Z,13.82
2022-10-22T05:30:56.640Z,12.93
2022-10-22T05:31:28.961Z,13.27
2022-10-22T05:32:00.605Z,12.38
2022-10-22T05:32:32.131Z,11.02
2022-10-22T05:33:03.762Z,11.93
2022-10-22T05:33:35.327Z,12.60
2022-10-22T05:34:06.895Z,11.65
2022-10-22T05:34:38.413Z,12.70
2022-10-22T05:35:09.941Z,11.60
2022-10-22T05:35:45.574Z,11.18
2022-10-22T05:36:20.996Z,11.40
2022-10-22T05:36:52.535Z,10.27
2022-10-22T05:37:24.079Z,10.50
2022-10-22T05:38:28.163Z,11.27
2022-10-22T05:38:59.686Z,11.38
2022-10-22T05:39:31.202Z,12.43
2022-10-22T05:40:18.931Z,11.85
2022-10-22T05:41:10.767Z,11.90
2022-10-22T05:41:42.334Z,12.48
2022-10-22T05:42:13.867Z,12.68
2022-10-22T05:42:45.372Z,12.45
2022-10-22T05:43:16.922Z,14.07
2022-10-22T05:43:48.845Z,13.43
2022-10-22T05:44:20.413Z,13.02
2022-10-22T05:44:53.082Z,13.20
2022-10-22T05:45:24.617Z,12.18
2022-10-22T05:45:56.393Z,10.43
2022-10-22T05:46:30.712Z,11.32
2022-10-22T05:47:02.275Z,10.88
2022-10-22T05:47:33.857Z,11.07
2022-10-22T05:48:06.610Z,10.57
2022-10-22T05:48:38.497Z,11.82
2022-10-22T05:49:13.553Z,11.90
2022-10-22T05:49:45.071Z,11.15
2022-10-22T05:50:16.601Z,11.85
2022-10-22T05:50:50.775Z,13.20
2022-10-22T05:51:23.009Z,14.18
2022-10-22T05:51:54.532Z,12.70
2022-10-22T05:52:26.556Z,14.48
2022-10-22T05:52:58.062Z,14.18
2022-10-22T05:53:29.567Z,13.82
2022-10-22T05:54:03.343Z,13.45
2022-10-22T05:54:34.995Z,13.80
2022-10-22T05:55:06.884Z,13.85
2022-10-22T05:55:40.578Z,12.95
2022-10-22T05:56:15.244Z,13.48
2022-10-22T05:56:46.807Z,12.20
2022-10-22T05:57:18.339Z,12.77
2022-10-22T05:57:50.225Z,13.02
2022-10-22T05:58:21.717Z,14.40
2022-10-22T05:58:53.289Z,13.23
2022-10-22T05:59:24.901Z,13.05
2022-10-22T05:59:56.397Z,13.77
2022-10-22T06:00:27.903Z,12.80
2022-10-22T06:01:08.114Z,12.90
2022-10-22T06:01:40.625Z,11.32
2022-10-22T06:02:12.573Z,12.02
2022-10-22T06:02:44.415Z,11.15
2022-10-22T06:03:15.914Z,11.25
2022-10-22T06:03:48.641Z,11.32
2022-10-22T06:04:20.152Z,11.52
2022-10-22T06:04:51.652Z,10.80
2022-10-22T06:05:23.179Z,11.65
2022-10-22T06:05:54.717Z,11.43
2022-10-22T06:06:31.534Z,11.00
2022-10-22T06:07:03.259Z,11.57
2022-10-22T06:07:35.983Z,11.68
2022-10-22T06:08:15.614Z,11.43
2022-10-22T06:08:52.815Z,11.27
2022-10-22T06:09:27.776Z,12.35
2022-10-22T06:09:59.819Z,11.02
2022-10-22T06:10:31.874Z,11.30
2022-10-22T06:11:03.471Z,10.98
2022-10-22T06:11:35.423Z,12.10
2022-10-22T06:12:10.811Z,12.05
2022-10-22T06:12:42.556Z,13.07
2022-10-22T06:13:14.408Z,11.55
2022-10-22T06:13:46.820Z,11.82
2022-10-22T06:14:19.641Z,13.38
2022-10-22T06:14:51.259Z,12.02
2022-10-22T06:15:22.835Z,12.23
2022-10-22T06:15:54.432Z,11.52
2022-10-22T06:16:29.697Z,12.88
2022-10-22T06:17:01.281Z,13.07
2022-10-22T06:17:32.836Z,13.00
2022-10-22T06:18:04.384Z,13.30
2022-10-22T06:18:36.056Z,12.60
2022-10-22T06:19:08.286Z,13.38
2022-10-22T06:19:39.801Z,12.98
2022-10-22T06:20:12.352Z,12.65
2022-10-22T06:20:45.445Z,12.63
2022-10-22T06:21:17.131Z,13.23
2022-10-22T06:21:49.093Z,12.40
2022-10-22T06:22:20.601Z,12.65
2022-10-22T06:22:52.107Z,12.98
2022-10-22T06:23:23.631Z,13.13
2022-10-22T06:23:59.519Z,13.25
2022-10-22T06:24:31.209Z,14.38
2022-10-22T06:25:02.760Z,13.50
2022-10-22T06:25:34.275Z,12.80
2022-10-22T06:26:07.337Z,12.23
2022-10-22T06:26:39.210Z,13.02
2022-10-22T06:27:10.732Z,12.73
2022-10-22T06:27:42.283Z,12.80
2022-10-22T06:28:13.797Z,12.82
2022-10-22T06:28:45.355Z,12.55
2022-10-22T06:29:17.186Z,11.95
2022-10-22T06:29:48.939Z,13.10
2022-10-22T06:30:20.508Z,13.05
2022-10-22T06:30:52.066Z,12.45
2022-10-22T06:31:25.410Z,12.52
2022-10-22T06:31:56.916Z,13.25
2022-10-22T06:32:28.423Z,12.82
2022-10-22T06:32:59.950Z,13.40
2022-10-22T06:33:34.074Z,12.52
2022-10-22T06:34:08.386Z,13.23
2022-10-22T06:34:39.975Z,12.38
2022-10-22T06:35:11.554Z,12.55
2022-10-22T06:35:43.090Z,12.63
2022-10-22T06:36:17.651Z,12.27
2022-10-22T06:36:49.303Z,12.73
2022-10-22T06:37:20.824Z,12.25
2022-10-22T06:37:52.333Z,12.80
2022-10-22T06:38:23.931Z,12.70
2022-10-22T06:38:55.899Z,13.25
2022-10-22T06:39:27.523Z,13.35
2022-10-22T06:39:59.101Z,13.35
2022-10-22T06:40:30.643Z,13.18
2022-10-22T06:41:04.440Z,13.60
2022-10-22T06:41:36.162Z,13.00
2022-10-22T06:42:07.721Z,12.75
2022-10-22T06:42:39.520Z,14.35
2022-10-22T06:43:13.068Z,14.48
2022-10-22T06:43:46.866Z,13.95
2022-10-22T06:44:19.753Z,14.63
2022-10-22T06:44:51.324Z,14.60
2022-10-22T06:45:22.894Z,14.63
2022-10-22T06:45:59.848Z,14.73
2022-10-22T06:46:32.201Z,14.88
2022-10-22T06:47:03.758Z,14.83
2022-10-22T06:47:35.346Z,13.75
2022-10-22T06:48:07.228Z,14.00
2022-10-22T06:48:40.114Z,13.90
2022-10-22T06:49:15.337Z,13.38
2022-10-22T06:49:48.588Z,14.30
2022-10-22T06:50:20.096Z,13.63
2022-10-22T06:50:51.635Z,14.02
2022-10-22T06:51:23.659Z,13.10
2022-10-22T06:51:55.344Z,12.52
2022-10-22T06:52:26.889Z,13.97
2022-10-22T06:52:58.433Z,13.52
2022-10-22T06:53:30.645Z,13.50
2022-10-22T06:54:02.147Z,13.70
2022-10-22T06:54:33.768Z,12.93
2022-10-22T06:55:05.688Z,13.52
2022-10-22T06:55:37.217Z,14.20
2022-10-22T06:56:11.772Z,13.77
2022-10-22T06:56:43.377Z,14.57
2022-10-22T06:57:14.892Z,15.27
2022-10-22T06:57:46.401Z,16.67
2022-10-22T06:58:18.450Z,17.27
2022-10-22T06:58:51.390Z,15.85
2022-10-22T06:59:22.887Z,17.35
2022-10-22T06:59:54.384Z,16.55
2022-10-22T07:00:26.005Z,15.57
2022-10-22T07:01:05.301Z,16.50
2022-10-22T07:01:38.068Z,15.55
2022-10-22T07:02:10.387Z,14.88
2022-10-22T07:02:42.196Z,15.60
2022-10-22T07:03:14.780Z,15.50
2022-10-22T07:03:46.733Z,15.80
2022-10-22T07:04:18.248Z,16.13
2022-10-22T07:04:49.748Z,16.60
2022-10-22T07:05:21.303Z,15.65
2022-10-22T07:05:52.840Z,15.68
2022-10-22T07:06:25.679Z,15.15
2022-10-22T07:06:57.224Z,15.70
2022-10-22T07:07:28.769Z,15.82
2022-10-22T07:08:00.310Z,16.10
2022-10-22T07:08:32.160Z,15.50
2022-10-22T07:09:04.120Z,15.65
2022-10-22T07:09:35.815Z,16.15
2022-10-22T07:10:08.066Z,15.00
2022-10-22T07:10:39.615Z,15.73
2022-10-22T07:11:20.878Z,15.15
2022-10-22T07:11:52.379Z,14.88
2022-10-22T07:12:23.886Z,15.38
2022-10-22T07:12:55.405Z,14.88
2022-10-22T07:13:26.928Z,15.57
2022-10-22T07:13:59.931Z,15.90
2022-10-22T07:14:31.453Z,14.60
2022-10-22T07:15:03.187Z,14.25
2022-10-22T07:15:34.745Z,16.67
2022-10-22T07:16:07.796Z,15.90
2022-10-22T07:16:42.121Z,14.85
2022-10-22T07:17:13.631Z,15.65
2022-10-22T07:17:45.279Z,15.65
2022-10-22T07:18:16.796Z,15.30
2022-10-22T07:18:48.997Z,16.00
2022-10-22T07:19:20.511Z,16.33
2022-10-22T07:19:52.099Z,15.68
2022-10-22T07:20:23.710Z,16.02
2022-10-22T07:20:55.401Z,16.00
2022-10-22T07:21:27.137Z,15.85
2022-10-22T07:21:58.757Z,17.10
2022-10-22T07:22:30.323Z,15.73
2022-10-22T07:23:01.829Z,16.27